Have a Safe July 4th! 

Flight Track Log - Related Links

Times and Time Zones

All times are in EDT time to prevent confusion due to time zone crossing. See the EGF2730 flight status page for this flight to view local times or setup timezone preferences in your user account.

Time Position Orientation Groundspeed Altitude Reporting Facility
EDT Latitude Longitude Course Direction KTS MPH feet Rate Location/Type
Sat 02:30:39 PM 43.6667 -79.6833 279° West 180 207 2,400  Level Toronto Center
Sat 02:31:39 PM 43.6833 -79.7667 285° West 220 253 4,500 2,100 Climbing Toronto Center
Sat 02:32:00 PM 43.6822 -79.9586 281° West  Level FlightAware Approximate
Sat 02:32:39 PM 43.6833 -79.8333 270° West 230 265 6,600  Level Toronto Center
Sat 02:33:00 PM 43.6925 -80.0755 277° West  Level FlightAware Approximate
Sat 02:33:39 PM 43.7000 -79.9333 283° West 240 276 8,700  Level Toronto Center
Sat 02:34:00 PM 43.7000 -80.1928 270° West  Level FlightAware Approximate
Sat 02:34:39 PM 43.7167 -80.0333 283° West 260 299 10,800  Level Toronto Center
Sat 02:35:00 PM 43.7085 -80.3100 277° West  Level FlightAware Approximate
Sat 02:35:39 PM 43.7500 -80.1333 295° West 260 299 12,500  Level Toronto Center
Sat 02:36:00 PM 43.7212 -80.4403 279° West  Level FlightAware Approximate
Sat 02:36:39 PM 43.7333 -80.2333 257° West 270 311 13,900  Level Toronto Center
Sat 02:37:39 PM 43.7167 -80.3500 259° West 300 345 14,900 1,000 Climbing Toronto Center
Sat 02:38:39 PM 43.7167 -80.4833 270° West 330 380 15,900 1,000 Climbing Toronto Center
Sat 02:39:39 PM 43.7000 -80.6167 260° West 340 391 16,900 1,200 Climbing Toronto Center
Sat 02:40:39 PM 43.7000 -80.7333 270° West 350 403 18,300 1,800 Climbing Toronto Center
Sat 02:41:39 PM 43.6833 -80.8833 261° West 340 391 20,500 1,800 Climbing Toronto Center
Sat 02:42:39 PM 43.6833 -81.0000 270° West 330 380 21,900 1,400 Climbing Toronto Center
Sat 02:43:39 PM 43.7000 -81.1333 280° West 330 380 23,300 1,400 Climbing Toronto Center
Sat 02:44:39 PM 43.7000 -81.2500 270° West 330 380 24,700 1,450 Climbing Toronto Center
Sat 02:45:39 PM 43.7000 -81.3833 270° West 340 391 26,200 1,350 Climbing Toronto Center
Sat 02:46:39 PM 43.7000 -81.5000 270° West 320 368 27,400 1,100 Climbing Toronto Center
Sat 02:47:39 PM 43.6500 -81.6167 239° Southwest 320 368 28,400 950 Climbing Toronto Center
Sat 02:48:39 PM 43.6167 -81.7333 248° West 330 380 29,300 950 Climbing Toronto Center
Sat 02:49:39 PM 43.5833 -81.8667 251° West 340 391 30,300 950 Climbing Toronto Center
Sat 02:50:39 PM 43.5333 -81.9833 239° Southwest 340 391 31,200 850 Climbing Toronto Center
Sat 02:51:39 PM 43.5000 -82.1000 249° West 350 403 32,000 400 Climbing Toronto Center
Sat 02:52:39 PM 43.4667 -82.2333 251° West 360 414 32,000  Level Toronto Center
Sat 02:53:39 PM 43.4167 -82.3333 235° Southwest 380 437 32,000  Level Toronto Center
Sat 02:54:39 PM 43.3833 -82.5000 255° West 380 437 32,000  Level Toronto Center
Sat 02:55:39 PM 43.3333 -82.6167 240° Southwest 380 437 32,000 750 Level Toronto Center
Sat 02:56:39 PM 43.2833 -82.7500 243° Southwest 370 426 33,500 1,000 Climbing Toronto Center
Sat 02:57:39 PM 43.2500 -82.8833 251° West 360 414 34,000 250 Climbing Toronto Center
Sat 02:58:39 PM 43.2000 -83.0000 240° Southwest 360 414 34,000  Level Toronto Center
Sat 02:59:39 PM 43.1667 -83.1333 251° West 370 426 34,000  Level Toronto Center
Sat 03:00:39 PM 43.1167 -83.2667 243° Southwest 370 426 34,000  Level Toronto Center
Sat 03:01:39 PM 43.0667 -83.3833 240° Southwest 370 426 34,000  Level Toronto Center
Sat 03:02:39 PM 43.0333 -83.5167 251° West 380 437 34,000 -150 Level Toronto Center
Sat 03:03:39 PM 43.0000 -83.6500 251° West 380 437 33,700 -500 Descending Toronto Center
Sat 03:04:39 PM 42.9500 -83.7833 243° Southwest 390 449 33,000 -372 Descending Toronto Center
Sat 03:05:32 PM 42.9531 -83.8961 272° West 397 457 33,000  Level Chicago Center
Sat 03:06:08 PM 42.9411 -83.9981 261° West 393 452 33,000 -563 Level Cleveland Center
Sat 03:07:08 PM 42.9281 -84.1506 263° West 404 465 32,100 -400 Descending Cleveland Center
Sat 03:08:38 PM 42.9053 -84.3783 262° West 400 460 32,000 -39 Descending Chicago Center
Sat 03:09:40 PM 42.8897 -84.5283 262° West 401 461 32,000  Level Chicago Center
Sat 03:10:42 PM 42.8744 -84.6800 262° West 402 463 32,000  Level Chicago Center
Sat 03:11:44 PM 42.8583 -84.8314 262° West 404 465 32,000  Level Chicago Center
Sat 03:12:46 PM 42.8419 -84.9864 262° West 411 473 32,000  Level Chicago Center
Sat 03:13:48 PM 42.8219 -85.1731 262° West 414 476 32,000 -435 Level Chicago Center
Sat 03:14:50 PM 42.8050 -85.3250 261° West 409 471 31,100 -960 Descending Chicago Center
Sat 03:15:53 PM 42.7883 -85.4769 262° West 406 467 30,000 -1,113 Descending Chicago Center
Sat 03:16:54 PM 42.7647 -85.6253 258° West 402 463 28,800 -1,756 Descending Chicago Center
Sat 03:17:56 PM 42.7389 -85.7625 256° West 379 436 26,400 -2,208 Descending Chicago Center
Sat 03:18:59 PM 42.7158 -85.8925 256° West 357 411 24,200 -1,488 Descending Chicago Center
Sat 03:20:01 PM 42.6911 -86.0225 256° West 352 405 23,300 -1,597 Descending Chicago Center
Sat 03:21:03 PM 42.6636 -86.1750 256° West 347 399 20,900 -1,597 Descending Chicago Center
Sat 03:22:05 PM 42.6408 -86.2983 256° West 338 389 20,000 -532 Descending Chicago Center
Sat 03:23:07 PM 42.6167 -86.4219 255° West 340 391 19,800 -1,016 Descending Chicago Center
Sat 03:24:09 PM 42.5944 -86.5444 256° West 335 386 17,900 -1,887 Descending Chicago Center
Sat 03:25:11 PM 42.5708 -86.6644 255° West 332 382 15,900 -1,984 Descending Chicago Center
Sat 03:26:13 PM 42.5458 -86.7822 254° West 326 375 13,800 -1,984 Descending Chicago Center
Sat 03:27:15 PM 42.5153 -86.8942 250° West 319 367 11,800 -1,645 Descending Chicago Center
Sat 03:28:17 PM 42.4806 -87.0169 249° West 290 334 10,400 -1,210 Descending Chicago Center
Sat 03:29:19 PM 42.4539 -87.1117 249° West 271 312 9,300 -433 Descending Chicago Center
Sat 03:31:31 PM 42.3500 -87.2500 225° Southwest 281 323 9,000 -96 Descending Chicago TRACON
Sat 03:32:26 PM 42.2808 -87.2600 186° South 279 321 9,000 -564 Level Chicago Center
Sat 03:33:28 PM 42.2042 -87.2669 184° South 275 316 7,900 -968 Descending Chicago Center
Sat 03:34:30 PM 42.1331 -87.2731 184° South 260 299 7,000 -435 Descending Chicago Center
Sat 03:35:32 PM 42.0694 -87.3097 203° Southwest 250 288 7,000  Level Chicago Center
Sat 03:36:34 PM 42.0097 -87.3789 221° Southwest 253 291 7,000 -435 Level Chicago Center
Sat 03:37:36 PM 41.9833 -87.4622 247° West 244 281 6,100 -629 Descending Chicago Center
Sat 03:38:38 PM 41.9844 -87.5539 271° West 252 290 5,700 -871 Descending Chicago Center
Sat 03:39:40 PM 41.9842 -87.6442 270° West 247 284 4,300 -1,210 Descending Chicago Center
Sat 03:40:42 PM 41.9836 -87.7181 269° West 227 261 3,200 -1,065 Descending Chicago Center
Sat 03:41:44 PM 41.9842 -87.7942 271° West 191 220 2,100 -871 Descending Chicago Center
Sat 03:42:46 PM 41.9836 -87.8464 269° West 168 193 1,400 -677 Descending Chicago Center

Login

Don't have an account? Register now (free) for customized features, flight alerts, and more!